Airfield :
LOGIN :

Register | Disclaimer

   EN    FR    IT 

 










Legend :    VFR   Marginal VFR   IFR   Intensive IFR   Very Intensive IFR
Visi :
Ceiling :
>= 8 km
>= 3000ft
5 to 8 km
1000 to 3000 ft
1500m to 5 km
500 to 1000 ft
800 to 1500m
200 to 500 ft
< 800m
< 200 ft
Symbols :   Thunderstorms  Fog  Heavy snow  Heavy precipitations  Wind > 20 kt
SIGMETs :     Misc.  Thunderstorms  Icing  Turbulence  Mountain Waves  Volcanic Ashes






- Airport Elevation : 2302 ft


LEAB - Albacete

CURRENT METAR :
  • 271330Z 11004KT 060V140 6000 RA OVC042 08/08 Q1006 BECMG NSW

EXPIRED METARs :
  • 271300Z 10006KT 080V140 4000 RA BKN017 08/08 Q1006 BECMG NSW
  • 271251Z 09007KT 2600 RA BKN016 08/08 Q1007 BECMG NSW
  • 271238Z 09008KT 060V120 4500 RA BKN011 OVC027 08/07 Q1007 BECMG NSW
  • 271222Z 10017G28KT 1000 R09/2000D R27/2000D +SHRA SCT019TCU OVC024 09/07 Q1007 BECMG NSW
  • 271200Z 05015KT 9999 BKN024 OVC038 10/09 Q1006 NOSIG
  • 271130Z 05013KT 9999 BKN028 10/08 Q1007 NOSIG
  • 271100Z 08014KT 9999 FEW030 BKN040 12/08 Q1007 NOSIG

TAF AMD TAF LEAB
Valid from the 27 at 12:00 until the 28 at 12:00 UTC


271233Z 2712/2812 VRB05KT 9999 SCT030 BKN045 TX12/2715Z TN06/2806Z
TEMPO 2712/2719 10015G30KT 4000 RA SHRA BKN030TCU
PROB40
TEMPO 2712/2714 3000 TS SHRA SCT014 SCT030CB
PROB30
TEMPO 2719/2802 03010KT 4000 BR DZ BKN012
PROB40
TEMPO 2802/2808 34010KT 3000 BR DZ BKN005



MET'MAP, your aeronautical weather chart ! - Copyright ORBIFLY December 2007 - Disclaimer

ORBIFLY MET'MAP TEAM :

Programming & Development : Alexandra Zaïnal
Concept & original design : Baudouin d'Aumeries
Assistance for programming : Marc-Olivier Méhu
Technical & hardware support : Manuel Goepfert

Contact : metmap@orbifly.com




SOURCES & CREDITS :

   NOAA